createdAt,value
2022-08-12T00:01:15.772Z,19.90
2022-08-12T00:04:05.891Z,19.90
2022-08-12T00:06:53.951Z,19.80
2022-08-12T00:09:40.055Z,19.80
2022-08-12T00:12:26.693Z,19.70
2022-08-12T00:15:12.668Z,19.60
2022-08-12T00:18:02.635Z,19.60
2022-08-12T00:20:49.283Z,19.50
2022-08-12T00:23:35.302Z,19.40
2022-08-12T00:26:24.372Z,19.40
2022-08-12T00:29:13.292Z,19.40
2022-08-12T00:32:01.055Z,19.30
2022-08-12T00:34:52.593Z,19.20
2022-08-12T00:37:40.875Z,19.10
2022-08-12T00:40:31.713Z,19.10
2022-08-12T00:43:00.981Z,19.10
2022-08-12T00:45:51.163Z,19.10
2022-08-12T00:48:20.833Z,19.20
2022-08-12T00:50:55.806Z,19.20
2022-08-12T00:53:24.667Z,19.30
2022-08-12T00:55:57.511Z,19.30
2022-08-12T00:58:32.706Z,19.40
2022-08-12T01:01:05.909Z,19.30
2022-08-12T01:03:56.207Z,19.30
2022-08-12T01:06:53.931Z,19.20
2022-08-12T01:09:41.907Z,19.10
2022-08-12T01:12:12.933Z,19.00
2022-08-12T01:14:43.379Z,19.00
2022-08-12T01:17:11.889Z,19.00
2022-08-12T01:19:41.553Z,19.00
2022-08-12T01:22:25.823Z,18.90
2022-08-12T01:25:19.280Z,18.90
2022-08-12T01:27:52.145Z,18.80
2022-08-12T01:30:22.083Z,18.80
2022-08-12T01:32:53.479Z,18.90
2022-08-12T01:35:24.513Z,18.70
2022-08-12T01:37:58.936Z,18.70
2022-08-12T01:40:37.254Z,18.70
2022-08-12T01:43:09.620Z,18.70
2022-08-12T01:45:47.031Z,18.70
2022-08-12T01:48:27.500Z,18.70
2022-08-12T01:51:06.458Z,18.60
2022-08-12T01:54:04.416Z,18.60
2022-08-12T01:56:49.052Z,18.50
2022-08-12T01:59:43.319Z,18.50
2022-08-12T02:02:20.393Z,18.50
2022-08-12T02:05:35.485Z,18.40
2022-08-12T02:08:45.635Z,18.40
2022-08-12T02:11:23.938Z,18.30
2022-08-12T02:14:43.241Z,18.30
2022-08-12T02:18:00.147Z,18.20
2022-08-12T02:20:51.810Z,18.10
2022-08-12T02:23:27.902Z,18.10
2022-08-12T02:26:02.361Z,18.10
2022-08-12T02:28:31.981Z,18.10
2022-08-12T02:31:08.866Z,18.00
2022-08-12T02:33:38.883Z,18.00
2022-08-12T02:36:08.651Z,18.00
2022-08-12T02:38:37.746Z,17.90
2022-08-12T02:41:10.897Z,17.90
2022-08-12T02:43:47.125Z,17.90
2022-08-12T02:46:24.914Z,17.80
2022-08-12T02:49:00.719Z,17.90
2022-08-12T02:51:34.385Z,17.80
2022-08-12T02:54:07.315Z,17.70
2022-08-12T02:56:40.516Z,17.60
2022-08-12T02:59:12.169Z,17.60
2022-08-12T03:01:49.728Z,17.60
2022-08-12T03:04:27.429Z,17.60
2022-08-12T03:07:10.483Z,17.50
2022-08-12T03:10:04.480Z,17.60
2022-08-12T03:12:42.806Z,17.50
2022-08-12T03:15:22.946Z,17.50
2022-08-12T03:18:25.486Z,17.40
2022-08-12T03:20:50.329Z,17.40
2022-08-12T03:23:29.695Z,17.40
2022-08-12T03:26:02.436Z,17.30
2022-08-12T03:28:53.928Z,17.30
2022-08-12T03:31:25.887Z,17.30
2022-08-12T03:34:03.094Z,17.40
2022-08-12T03:36:35.221Z,17.30
2022-08-12T03:39:35.475Z,17.30
2022-08-12T03:42:25.662Z,17.20
2022-08-12T03:45:51.724Z,17.20
2022-08-12T03:48:39.671Z,17.20
2022-08-12T03:51:29.299Z,17.10
2022-08-12T03:54:16.149Z,17.10
2022-08-12T03:57:02.221Z,17.10
2022-08-12T03:59:48.744Z,17.00
2022-08-12T04:02:18.181Z,17.10
2022-08-12T04:04:47.284Z,17.10
2022-08-12T04:07:19.771Z,17.10
2022-08-12T04:09:48.444Z,17.10
2022-08-12T04:12:34.431Z,17.20
2022-08-12T04:15:04.651Z,17.20
2022-08-12T04:17:34.943Z,17.10
2022-08-12T04:20:03.719Z,17.20
2022-08-12T04:22:34.602Z,17.10
2022-08-12T04:25:04.481Z,17.10
2022-08-12T04:27:35.328Z,17.20
2022-08-12T04:30:29.243Z,17.30
2022-08-12T04:32:54.607Z,17.30
2022-08-12T04:35:22.983Z,17.30
2022-08-12T04:37:59.747Z,17.50
2022-08-12T04:40:33.276Z,17.70
2022-08-12T04:43:02.430Z,18.00
2022-08-12T04:45:33.026Z,18.10
2022-08-12T04:48:02.904Z,18.40
2022-08-12T04:50:34.687Z,18.80
2022-08-12T04:53:08.949Z,19.20
2022-08-12T04:55:40.229Z,19.60
2022-08-12T04:58:10.256Z,20.00
2022-08-12T05:00:40.041Z,20.50
2022-08-12T05:03:09.235Z,20.80
2022-08-12T05:05:41.156Z,21.20
2022-08-12T05:08:15.807Z,21.50
2022-08-12T05:10:46.283Z,22.00
2022-08-12T05:13:20.249Z,22.50
2022-08-12T05:16:04.200Z,23.00
2022-08-12T05:18:35.393Z,23.10
2022-08-12T05:21:10.073Z,23.40
2022-08-12T05:23:42.885Z,23.80
2022-08-12T05:26:11.909Z,24.20
2022-08-12T05:28:41.192Z,24.70
2022-08-12T05:31:11.186Z,25.00
2022-08-12T05:33:40.789Z,25.40
2022-08-12T05:36:13.861Z,25.70
2022-08-12T05:38:57.697Z,26.10
2022-08-12T05:41:29.063Z,26.60
2022-08-12T05:44:01.168Z,27.00
2022-08-12T05:46:32.058Z,27.40
2022-08-12T05:49:01.553Z,27.70
2022-08-12T05:51:41.291Z,27.90
2022-08-12T05:54:12.500Z,28.40
2022-08-12T05:56:41.933Z,29.00
2022-08-12T05:59:12.458Z,29.20
2022-08-12T06:02:10.842Z,29.30
2022-08-12T06:04:33.164Z,29.50
2022-08-12T06:07:02.627Z,29.80
2022-08-12T06:09:52.347Z,29.90
2022-08-12T06:12:23.291Z,29.90
2022-08-12T06:14:51.647Z,30.70
2022-08-12T06:17:19.966Z,31.20
2022-08-12T06:20:26.973Z,31.90
2022-08-12T06:22:37.351Z,32.10
2022-08-12T06:25:09.115Z,32.00
2022-08-12T06:28:05.824Z,31.50
2022-08-12T06:30:39.159Z,31.20
2022-08-12T06:33:55.247Z,31.00
2022-08-12T06:35:59.053Z,31.00
2022-08-12T06:38:30.651Z,31.10
2022-08-12T06:41:20.272Z,30.40
2022-08-12T06:44:05.613Z,29.90
2022-08-12T06:46:38.644Z,29.30
2022-08-12T06:49:08.612Z,29.00
2022-08-12T06:51:36.921Z,28.40
2022-08-12T06:54:05.271Z,27.50
2022-08-12T06:59:24.892Z,27.00
2022-08-12T07:01:54.989Z,27.50
2022-08-12T07:04:36.201Z,28.50
2022-08-12T07:07:07.090Z,29.10
2022-08-12T07:10:06.558Z,29.20
2022-08-12T07:12:28.008Z,29.40
2022-08-12T07:14:59.461Z,28.50
2022-08-12T07:17:35.833Z,27.80
2022-08-12T07:20:06.797Z,28.10
2022-08-12T07:22:35.492Z,28.50
2022-08-12T07:25:22.319Z,28.40
2022-08-12T07:27:56.151Z,28.40
2022-08-12T07:30:25.282Z,29.10
2022-08-12T07:32:57.471Z,29.30
2022-08-12T07:35:31.459Z,29.20
2022-08-12T07:38:02.654Z,29.50
2022-08-12T07:40:31.551Z,29.90
2022-08-12T07:43:01.608Z,30.30
2022-08-12T07:45:30.585Z,30.20
2022-08-12T07:47:59.426Z,29.70
2022-08-12T07:50:28.065Z,30.00
2022-08-12T07:52:56.408Z,30.40
2022-08-12T07:55:25.017Z,29.90
2022-08-12T07:57:58.609Z,30.40
2022-08-12T08:00:31.398Z,31.00
2022-08-12T08:03:00.226Z,31.40
2022-08-12T08:05:35.705Z,31.60
2022-08-12T08:08:13.697Z,32.00
2022-08-12T08:10:42.554Z,32.40
2022-08-12T08:13:11.843Z,32.20
2022-08-12T08:16:02.380Z,31.60
2022-08-12T08:18:31.340Z,31.20
2022-08-12T08:21:00.064Z,31.20
2022-08-12T08:23:55.840Z,31.50
2022-08-12T08:26:27.010Z,31.60
2022-08-12T08:28:55.968Z,31.80
2022-08-12T08:31:25.809Z,32.00
2022-08-12T08:34:09.614Z,32.30
2022-08-12T08:36:44.859Z,32.70
2022-08-12T08:39:17.745Z,32.50
2022-08-12T08:42:14.254Z,30.80
2022-08-12T08:44:49.800Z,30.00
2022-08-12T08:47:28.198Z,29.30
2022-08-12T08:50:00.996Z,28.90
2022-08-12T08:52:39.316Z,28.90
2022-08-12T08:55:11.280Z,29.30
2022-08-12T08:57:44.108Z,29.40
2022-08-12T09:00:18.332Z,29.70
2022-08-12T09:02:59.323Z,30.30
2022-08-12T09:05:43.112Z,29.80
2022-08-12T09:08:23.085Z,30.30
2022-08-12T09:14:11.388Z,29.70
2022-08-12T09:16:37.903Z,29.30
2022-08-12T09:19:27.292Z,28.80
2022-08-12T09:21:57.271Z,28.20
2022-08-12T09:24:30.742Z,28.40
2022-08-12T09:27:00.743Z,28.90
2022-08-12T09:30:10.663Z,28.90
2022-08-12T09:32:56.635Z,28.30
2022-08-12T09:35:18.420Z,28.50
2022-08-12T09:37:57.866Z,29.10
2022-08-12T09:40:58.084Z,29.60
2022-08-12T09:43:35.377Z,29.80
2022-08-12T09:46:20.332Z,29.60
2022-08-12T09:48:56.795Z,29.00
2022-08-12T09:51:37.418Z,28.70
2022-08-12T09:54:33.562Z,28.40
2022-08-12T09:57:03.928Z,28.80
2022-08-12T10:00:16.138Z,29.20
2022-08-12T10:02:58.715Z,29.30
2022-08-12T10:06:27.004Z,29.80
2022-08-12T10:08:22.729Z,30.00
2022-08-12T10:11:09.507Z,30.20
2022-08-12T10:13:52.678Z,30.00
2022-08-12T10:16:23.299Z,30.00
2022-08-12T10:18:54.483Z,30.30
2022-08-12T10:21:35.810Z,30.40
2022-08-12T10:24:10.957Z,30.30
2022-08-12T10:26:59.516Z,30.30
2022-08-12T10:30:37.004Z,30.10
2022-08-12T10:32:56.119Z,29.80
2022-08-12T10:35:20.183Z,29.90
2022-08-12T10:38:34.150Z,29.20
2022-08-12T10:40:59.476Z,28.40
2022-08-12T10:43:54.215Z,28.20
2022-08-12T10:46:30.450Z,27.90
2022-08-12T10:49:06.712Z,28.10
2022-08-12T10:52:32.459Z,28.70
2022-08-12T10:54:43.433Z,27.80
2022-08-12T10:57:18.405Z,27.50
2022-08-12T11:00:33.903Z,27.40
2022-08-12T11:04:18.134Z,27.40
2022-08-12T11:07:03.543Z,27.40
2022-08-12T11:08:43.181Z,27.10
2022-08-12T11:11:17.947Z,27.10
2022-08-12T11:14:47.871Z,27.10
2022-08-12T11:17:34.317Z,27.10
2022-08-12T11:19:46.773Z,26.90
2022-08-12T11:22:18.230Z,26.70
2022-08-12T11:24:53.823Z,26.70
2022-08-12T11:27:23.769Z,26.60
2022-08-12T11:30:01.738Z,26.60
2022-08-12T11:32:38.863Z,26.80
2022-08-12T11:35:11.645Z,26.90
2022-08-12T11:37:59.088Z,27.10
2022-08-12T11:40:29.379Z,27.10
2022-08-12T11:43:19.019Z,26.90
2022-08-12T11:45:53.341Z,26.90
2022-08-12T11:48:27.061Z,27.00
2022-08-12T11:50:57.000Z,27.00
2022-08-12T11:53:59.221Z,26.90
2022-08-12T11:56:13.941Z,26.70
2022-08-12T12:01:58.803Z,26.60
2022-08-12T12:04:29.048Z,26.80
2022-08-12T12:07:06.786Z,26.80
2022-08-12T12:09:51.863Z,26.80
2022-08-12T12:12:25.232Z,26.80
2022-08-12T12:14:54.820Z,26.80
2022-08-12T12:17:26.466Z,26.80
2022-08-12T12:20:10.016Z,26.70
2022-08-12T12:22:45.243Z,26.80
2022-08-12T12:25:14.531Z,26.90
2022-08-12T12:28:04.646Z,26.80
2022-08-12T12:30:35.107Z,26.90
2022-08-12T12:33:06.412Z,27.00
2022-08-12T12:36:16.556Z,26.90
2022-08-12T12:38:25.568Z,26.90
2022-08-12T12:40:54.913Z,27.00
2022-08-12T12:43:28.726Z,26.90
2022-08-12T12:46:11.296Z,26.90
2022-08-12T12:48:44.268Z,26.80
2022-08-12T12:51:48.117Z,26.80
2022-08-12T12:54:09.930Z,27.00
2022-08-12T12:56:42.281Z,26.90
2022-08-12T12:59:55.203Z,27.00
2022-08-12T13:02:08.114Z,27.00
2022-08-12T13:04:38.647Z,27.10
2022-08-12T13:07:07.875Z,27.00
2022-08-12T13:09:36.993Z,27.10
2022-08-12T13:12:10.657Z,27.20
2022-08-12T13:14:39.572Z,27.30
2022-08-12T13:17:11.218Z,27.40
2022-08-12T13:19:49.904Z,27.20
2022-08-12T13:22:19.994Z,27.30
2022-08-12T13:24:54.805Z,27.30
2022-08-12T13:27:35.348Z,27.20
2022-08-12T13:30:12.989Z,27.20
2022-08-12T13:32:57.178Z,27.10
2022-08-12T13:35:33.339Z,27.10
2022-08-12T13:38:26.546Z,27.10
2022-08-12T13:41:02.881Z,27.10
2022-08-12T13:43:40.278Z,27.00
2022-08-12T13:46:11.900Z,27.20
2022-08-12T13:48:45.222Z,27.40
2022-08-12T13:51:24.170Z,27.50
2022-08-12T13:53:59.260Z,27.60
2022-08-12T13:56:35.182Z,27.70
2022-08-12T13:59:08.653Z,27.70
2022-08-12T14:01:40.421Z,27.80
2022-08-12T14:04:11.433Z,27.30
2022-08-12T14:06:43.433Z,27.30
2022-08-12T14:09:17.680Z,27.10
2022-08-12T14:11:59.076Z,27.00
2022-08-12T14:14:31.333Z,26.80
2022-08-12T14:17:05.606Z,26.90
2022-08-12T14:19:35.946Z,27.00
2022-08-12T14:22:10.377Z,27.00
2022-08-12T14:24:41.101Z,26.90
2022-08-12T14:27:11.366Z,26.90
2022-08-12T14:30:06.165Z,27.00
2022-08-12T14:32:34.944Z,27.00
2022-08-12T14:35:09.694Z,26.80
2022-08-12T14:37:56.899Z,26.90
2022-08-12T14:40:29.107Z,27.20
2022-08-12T14:42:59.327Z,27.50
2022-08-12T14:45:44.980Z,27.80
2022-08-12T14:48:24.498Z,28.00
2022-08-12T14:52:10.296Z,27.80
2022-08-12T14:55:24.688Z,27.40
2022-08-12T14:57:01.332Z,27.20
2022-08-12T14:59:56.501Z,27.10
2022-08-12T15:02:26.495Z,27.10
2022-08-12T15:04:58.866Z,27.00
2022-08-12T15:07:33.785Z,27.10
2022-08-12T15:10:31.816Z,27.00
2022-08-12T15:13:07.170Z,26.90
2022-08-12T15:15:43.843Z,27.00
2022-08-12T15:18:20.994Z,27.10
2022-08-12T15:20:51.369Z,27.10
2022-08-12T15:23:21.982Z,27.00
2022-08-12T15:25:59.685Z,26.90
2022-08-12T15:28:32.273Z,26.90
2022-08-12T15:31:02.271Z,27.00
2022-08-12T15:33:45.114Z,26.90
2022-08-12T15:36:19.200Z,26.80
2022-08-12T15:38:48.145Z,26.80
2022-08-12T15:41:22.170Z,26.90
2022-08-12T15:44:17.073Z,26.80
2022-08-12T15:46:41.354Z,26.80
2022-08-12T15:49:16.723Z,26.90
2022-08-12T15:51:58.132Z,26.90
2022-08-12T15:54:34.512Z,26.80
2022-08-12T15:57:10.590Z,26.80
2022-08-12T16:00:00.232Z,26.80
2022-08-12T16:02:50.114Z,26.80
2022-08-12T16:06:12.195Z,26.70
2022-08-12T16:08:18.379Z,26.70
2022-08-12T16:10:53.018Z,26.70
2022-08-12T16:13:32.476Z,26.80
2022-08-12T16:16:12.308Z,26.80
2022-08-12T16:18:58.606Z,26.80
2022-08-12T16:21:52.127Z,26.80
2022-08-12T16:24:18.543Z,26.70
2022-08-12T16:26:51.309Z,26.80
2022-08-12T16:29:38.596Z,26.80
2022-08-12T16:32:21.070Z,26.70
2022-08-12T16:34:55.919Z,26.60
2022-08-12T16:37:26.523Z,26.50
2022-08-12T16:40:06.002Z,26.40
2022-08-12T16:42:39.375Z,26.50
2022-08-12T16:45:14.174Z,26.60
2022-08-12T16:47:58.659Z,26.50
2022-08-12T16:50:30.757Z,26.40
2022-08-12T16:53:02.471Z,26.50
2022-08-12T16:55:38.230Z,26.50
2022-08-12T16:58:27.917Z,26.50
2022-08-12T17:01:02.139Z,26.50
2022-08-12T17:03:35.244Z,26.40
2022-08-12T17:06:09.013Z,26.30
2022-08-12T17:08:39.176Z,26.30
2022-08-12T17:11:17.875Z,26.30
2022-08-12T17:13:53.598Z,26.30
2022-08-12T17:16:24.342Z,26.30
2022-08-12T17:19:03.264Z,26.30
2022-08-12T17:21:41.240Z,26.20
2022-08-12T17:24:30.647Z,26.20
2022-08-12T17:27:09.478Z,26.20
2022-08-12T17:30:00.857Z,26.10
2022-08-12T17:32:35.799Z,26.10
2022-08-12T17:35:30.151Z,26.00
2022-08-12T17:38:11.837Z,25.90
2022-08-12T17:40:42.424Z,26.00
2022-08-12T17:43:57.756Z,25.90
2022-08-12T17:46:02.878Z,25.90
2022-08-12T17:48:38.235Z,25.80
2022-08-12T17:51:16.065Z,25.80
2022-08-12T17:54:11.030Z,25.70
2022-08-12T17:56:38.060Z,25.70
2022-08-12T17:59:12.676Z,25.70
2022-08-12T18:01:44.087Z,25.60
2022-08-12T18:04:23.221Z,25.60
2022-08-12T18:07:08.317Z,25.50
2022-08-12T18:09:41.044Z,25.50
2022-08-12T18:12:35.533Z,25.40
2022-08-12T18:15:08.528Z,25.30
2022-08-12T18:17:43.057Z,25.20
2022-08-12T18:20:18.410Z,25.10
2022-08-12T18:22:55.805Z,25.00
2022-08-12T18:26:14.168Z,25.10
2022-08-12T18:28:40.455Z,25.00
2022-08-12T18:31:13.279Z,24.80
2022-08-12T18:33:46.017Z,24.70
2022-08-12T18:36:22.279Z,24.50
2022-08-12T18:38:53.076Z,24.50
2022-08-12T18:41:33.714Z,24.50
2022-08-12T18:44:08.157Z,24.40
2022-08-12T18:46:54.107Z,24.40
2022-08-12T18:49:31.981Z,24.40
2022-08-12T18:52:11.545Z,24.30
2022-08-12T18:54:49.391Z,24.30
2022-08-12T18:58:05.805Z,24.20
2022-08-12T19:00:21.294Z,24.10
2022-08-12T19:02:53.955Z,24.10
2022-08-12T19:05:53.501Z,24.00
2022-08-12T19:08:16.324Z,24.00
2022-08-12T19:10:50.432Z,23.90
2022-08-12T19:13:39.862Z,23.80
2022-08-12T19:16:12.346Z,23.60
2022-08-12T19:18:44.977Z,23.50
2022-08-12T19:21:16.866Z,23.50
2022-08-12T19:24:12.391Z,23.60
2022-08-12T19:26:42.422Z,23.60
2022-08-12T19:29:12.029Z,23.50
2022-08-12T19:31:57.276Z,23.30
2022-08-12T19:37:26.626Z,23.00
2022-08-12T19:40:07.769Z,22.80
2022-08-12T19:42:44.400Z,22.70
2022-08-12T19:45:15.818Z,22.60
2022-08-12T19:47:46.553Z,22.50
2022-08-12T19:50:19.987Z,22.30
2022-08-12T19:52:53.058Z,22.30
2022-08-12T19:55:27.228Z,22.30
2022-08-12T19:58:02.710Z,22.20
2022-08-12T20:00:38.340Z,22.10
2022-08-12T20:03:08.566Z,22.10
2022-08-12T20:06:05.171Z,22.00
2022-08-12T20:08:37.467Z,22.00
2022-08-12T20:12:13.651Z,21.90
2022-08-12T20:14:01.100Z,21.80
2022-08-12T20:16:52.198Z,21.80
2022-08-12T20:19:24.548Z,21.80
2022-08-12T20:22:23.398Z,21.60
2022-08-12T20:24:55.094Z,21.50
2022-08-12T20:28:02.646Z,21.50
2022-08-12T20:30:18.088Z,21.50
2022-08-12T20:32:55.346Z,21.40
2022-08-12T20:36:06.195Z,21.30
2022-08-12T20:38:26.134Z,21.30
2022-08-12T20:40:55.726Z,21.20
2022-08-12T20:43:28.366Z,21.10
2022-08-12T20:46:00.796Z,21.10
2022-08-12T20:48:29.817Z,21.10
2022-08-12T20:51:04.305Z,21.00
2022-08-12T20:53:53.940Z,20.90
2022-08-12T20:56:30.388Z,20.80
2022-08-12T20:59:05.392Z,20.80
2022-08-12T21:01:46.781Z,20.80
2022-08-12T21:04:36.546Z,20.80
2022-08-12T21:07:08.971Z,20.80
2022-08-12T21:09:44.338Z,20.80
2022-08-12T21:12:27.384Z,20.70
2022-08-12T21:15:24.453Z,20.70
2022-08-12T21:18:11.569Z,20.70
2022-08-12T21:20:52.374Z,20.80
2022-08-12T21:23:22.845Z,20.80
2022-08-12T21:25:52.388Z,20.70
2022-08-12T21:28:30.693Z,20.60
2022-08-12T21:32:34.795Z,20.60
2022-08-12T21:34:08.874Z,20.60
2022-08-12T21:36:43.313Z,20.60
2022-08-12T21:39:21.137Z,20.50
2022-08-12T21:41:53.040Z,20.50
2022-08-12T21:44:24.411Z,20.50
2022-08-12T21:47:20.118Z,20.50
2022-08-12T21:50:02.140Z,20.40
2022-08-12T21:52:34.466Z,20.40
2022-08-12T21:55:08.243Z,20.40
2022-08-12T21:57:51.263Z,20.30
2022-08-12T22:00:32.123Z,20.30
2022-08-12T22:04:01.698Z,20.30
2022-08-12T22:06:31.554Z,20.20
2022-08-12T22:09:16.144Z,20.20
2022-08-12T22:11:56.266Z,20.10
2022-08-12T22:14:29.691Z,20.10
2022-08-12T22:17:01.412Z,20.10
2022-08-12T22:19:35.203Z,20.10
2022-08-12T22:22:05.208Z,20.10
2022-08-12T22:24:34.490Z,20.10
2022-08-12T22:27:08.353Z,20.10
2022-08-12T22:30:16.883Z,20.10
2022-08-12T22:32:49.802Z,20.10
2022-08-12T22:35:56.239Z,20.10
2022-08-12T22:38:23.599Z,20.10
2022-08-12T22:40:54.196Z,20.00
2022-08-12T22:44:00.369Z,20.00
2022-08-12T22:46:52.873Z,20.00
2022-08-12T22:49:36.507Z,19.90
2022-08-12T22:52:18.566Z,19.90
2022-08-12T22:55:03.509Z,19.80
2022-08-12T22:57:49.499Z,19.80
2022-08-12T23:00:27.943Z,19.80
2022-08-12T23:03:02.722Z,19.80
2022-08-12T23:05:57.405Z,19.80
2022-08-12T23:08:29.973Z,19.90
2022-08-12T23:11:00.778Z,19.90
2022-08-12T23:13:55.395Z,19.90
2022-08-12T23:16:31.742Z,19.80
2022-08-12T23:19:10.467Z,19.90
2022-08-12T23:22:06.714Z,19.80
2022-08-12T23:24:54.119Z,19.70
2022-08-12T23:27:50.865Z,19.70
2022-08-12T23:30:32.408Z,19.70
2022-08-12T23:33:04.890Z,19.60
2022-08-12T23:35:53.883Z,19.50
2022-08-12T23:38:33.101Z,19.50
2022-08-12T23:41:05.649Z,19.50
2022-08-12T23:43:39.146Z,19.40
2022-08-12T23:46:19.411Z,19.40
2022-08-12T23:48:51.625Z,19.40
2022-08-12T23:51:24.588Z,19.40
2022-08-12T23:53:56.350Z,19.40
2022-08-12T23:56:32.774Z,19.40
2022-08-12T23:59:01.822Z,19.50
